BAW835W EIDW-EGLL
Flight info
| Callsign | BAW835W |
|---|---|
| Flight time | N/A |
| Altitude | 35000 |
| Route | PESIT2J PESIT DCT BAKUR DCT ECCIT DCT GUBJE DCT GISOK DCT TACQI DCT FONZU DCT ELRIP DCT OTMET |
| Aircraft | A21N/M-SDE3FGHIJ1LRWXYZ/SB1G1 |
Departure
| Time | N/A |
|---|---|
| Airport | Dublin Airport (EIDW) |
Arrival
| Time | 2026-05-05 20:01 |
|---|---|
| Airport | London Heathrow Airport (EGLL) |
| Time | Latitude | Longitude | Altitude | Speed | Heading |
|---|---|---|---|---|---|
| 2026-05-05 19:35 | 50.64663 | -2.83144 | 34965 ft | 442 kts | 81° |
| 2026-05-05 19:36 | 50.65213 | -2.78443 | 34937 ft | 438 kts | 81° |
| 2026-05-05 19:36 | 50.65748 | -2.73721 | 34121 ft | 441 kts | 81° |
| 2026-05-05 19:36 | 50.66277 | -2.68905 | 32823 ft | 451 kts | 81° |
| 2026-05-05 19:36 | 50.66816 | -2.63977 | 31498 ft | 461 kts | 81° |
| 2026-05-05 19:37 | 50.67371 | -2.58948 | 30467 ft | 465 kts | 81° |
| 2026-05-05 19:37 | 50.67912 | -2.53946 | 29600 ft | 461 kts | 82° |
| 2026-05-05 19:37 | 50.68119 | -2.48947 | 28526 ft | 454 kts | 93° |
| 2026-05-05 19:37 | 50.67925 | -2.44062 | 28010 ft | 436 kts | 95° |
| 2026-05-05 19:38 | 50.67708 | -2.39395 | 27658 ft | 422 kts | 95° |
| 2026-05-05 19:38 | 50.67496 | -2.34783 | 27393 ft | 421 kts | 95° |
| 2026-05-05 19:38 | 50.67293 | -2.30185 | 27137 ft | 419 kts | 95° |
| 2026-05-05 19:38 | 50.67094 | -2.25611 | 26874 ft | 418 kts | 95° |
| 2026-05-05 19:39 | 50.66899 | -2.21047 | 26615 ft | 417 kts | 94° |
| 2026-05-05 19:39 | 50.66703 | -2.16499 | 26369 ft | 415 kts | 94° |
| 2026-05-05 19:39 | 50.66504 | -2.11964 | 26120 ft | 414 kts | 94° |
| 2026-05-05 19:39 | 50.66302 | -2.07441 | 25868 ft | 412 kts | 94° |
| 2026-05-05 19:40 | 50.66115 | -2.02932 | 25617 ft | 411 kts | 92° |
| 2026-05-05 19:40 | 50.66124 | -1.98424 | 25367 ft | 410 kts | 89° |
| 2026-05-05 19:40 | 50.66180 | -1.94005 | 25126 ft | 408 kts | 89° |
| 2026-05-05 19:40 | 50.66237 | -1.89491 | 24878 ft | 406 kts | 89° |
| 2026-05-05 19:41 | 50.66291 | -1.85095 | 24637 ft | 405 kts | 89° |
| 2026-05-05 19:41 | 50.66342 | -1.80675 | 24311 ft | 402 kts | 89° |
| 2026-05-05 19:41 | 50.66391 | -1.76280 | 23817 ft | 400 kts | 88° |
| 2026-05-05 19:41 | 50.66437 | -1.71909 | 23227 ft | 399 kts | 88° |
| 2026-05-05 19:42 | 50.66481 | -1.67527 | 22623 ft | 397 kts | 88° |
| 2026-05-05 19:42 | 50.66525 | -1.63188 | 22035 ft | 396 kts | 88° |
| 2026-05-05 19:42 | 50.66567 | -1.58866 | 21426 ft | 394 kts | 88° |
| 2026-05-05 19:42 | 50.66853 | -1.54632 | 21035 ft | 382 kts | 75° |
| 2026-05-05 19:43 | 50.67784 | -1.50771 | 20940 ft | 376 kts | 64° |
| 2026-05-05 19:43 | 50.68938 | -1.47074 | 20928 ft | 375 kts | 62° |
| 2026-05-05 19:43 | 50.70108 | -1.43408 | 20921 ft | 375 kts | 62° |
| 2026-05-05 19:43 | 50.71274 | -1.39715 | 20928 ft | 375 kts | 63° |
| 2026-05-05 19:44 | 50.72418 | -1.36015 | 20929 ft | 376 kts | 63° |
| 2026-05-05 19:44 | 50.73561 | -1.32302 | 20929 ft | 376 kts | 63° |
| 2026-05-05 19:44 | 50.74701 | -1.28598 | 20930 ft | 376 kts | 63° |
| 2026-05-05 19:44 | 50.75475 | -1.26146 | 20931 ft | 375 kts | 60° |
| 2026-05-05 19:45 | 50.77023 | -1.22861 | 20923 ft | 374 kts | 43° |
| 2026-05-05 19:45 | 50.79099 | -1.20408 | 20932 ft | 373 kts | 32° |
| 2026-05-05 19:45 | 50.81283 | -1.18229 | 20808 ft | 366 kts | 31° |
| 2026-05-05 19:45 | 50.84153 | -1.15364 | 19267 ft | 374 kts | 32° |
| 2026-05-05 19:46 | 50.85648 | -1.13848 | 18341 ft | 380 kts | 32° |
| 2026-05-05 19:46 | 50.87894 | -1.11553 | 16784 ft | 387 kts | 33° |
| 2026-05-05 19:46 | 50.90160 | -1.09222 | 15444 ft | 389 kts | 33° |
| 2026-05-05 19:46 | 50.92406 | -1.06891 | 14429 ft | 382 kts | 33° |
| 2026-05-05 19:47 | 50.94568 | -1.04642 | 13792 ft | 367 kts | 33° |
| 2026-05-05 19:47 | 50.96641 | -1.02486 | 13389 ft | 346 kts | 33° |
| 2026-05-05 19:47 | 50.98606 | -1.00451 | 13176 ft | 332 kts | 32° |
| 2026-05-05 19:47 | 51.00489 | -0.98361 | 13066 ft | 331 kts | 40° |
| 2026-05-05 19:48 | 51.02105 | -0.95760 | 13006 ft | 331 kts | 47° |
| 2026-05-05 19:48 | 51.03629 | -0.93026 | 12976 ft | 331 kts | 48° |
| 2026-05-05 19:48 | 51.05133 | -0.90310 | 12516 ft | 327 kts | 48° |
| 2026-05-05 19:48 | 51.06655 | -0.87576 | 11827 ft | 330 kts | 47° |
| 2026-05-05 19:49 | 51.08163 | -0.84882 | 11474 ft | 323 kts | 47° |
| 2026-05-05 19:49 | 51.09655 | -0.82220 | 11190 ft | 322 kts | 47° |
| 2026-05-05 19:49 | 51.11142 | -0.79558 | 10937 ft | 321 kts | 47° |
| 2026-05-05 19:49 | 51.12612 | -0.76919 | 10711 ft | 313 kts | 47° |
| 2026-05-05 19:50 | 51.14030 | -0.74373 | 10536 ft | 301 kts | 47° |
| 2026-05-05 19:50 | 51.15239 | -0.72204 | 10400 ft | 291 kts | 47° |
| 2026-05-05 19:50 | 51.16567 | -0.69817 | 10083 ft | 286 kts | 47° |
| 2026-05-05 19:50 | 51.17849 | -0.67515 | 9747 ft | 277 kts | 46° |
| 2026-05-05 19:51 | 51.19117 | -0.65245 | 9436 ft | 275 kts | 46° |
| 2026-05-05 19:51 | 51.20642 | -0.63380 | 9159 ft | 279 kts | 24° |
| 2026-05-05 19:51 | 51.22146 | -0.62713 | 8953 ft | 276 kts | 4° |
| 2026-05-05 19:51 | 51.24009 | -0.63089 | 8899 ft | 275 kts | 340° |
| 2026-05-05 19:52 | 51.25639 | -0.64661 | 8717 ft | 276 kts | 318° |
| 2026-05-05 19:52 | 51.26948 | -0.66895 | 8515 ft | 275 kts | 311° |
| 2026-05-05 19:52 | 51.28180 | -0.69228 | 8297 ft | 274 kts | 311° |
| 2026-05-05 19:52 | 51.29380 | -0.71533 | 8050 ft | 264 kts | 311° |
| 2026-05-05 19:53 | 51.30546 | -0.73779 | 7818 ft | 261 kts | 311° |
| 2026-05-05 19:53 | 51.31705 | -0.76018 | 7607 ft | 261 kts | 311° |
| 2026-05-05 19:53 | 51.32975 | -0.78067 | 7389 ft | 259 kts | 328° |
| 2026-05-05 19:53 | 51.34632 | -0.79089 | 7148 ft | 256 kts | 353° |
| 2026-05-05 19:54 | 51.36406 | -0.79250 | 6849 ft | 255 kts | 360° |
| 2026-05-05 19:54 | 51.38158 | -0.79243 | 6520 ft | 249 kts | 0° |
| 2026-05-05 19:54 | 51.39864 | -0.79216 | 6195 ft | 248 kts | 1° |
| 2026-05-05 19:54 | 51.41563 | -0.79182 | 5920 ft | 242 kts | 1° |
| 2026-05-05 19:55 | 51.43242 | -0.79163 | 5499 ft | 240 kts | 1° |
| 2026-05-05 19:55 | 51.44901 | -0.79153 | 5030 ft | 235 kts | 1° |
| 2026-05-05 19:55 | 51.46515 | -0.79150 | 4563 ft | 229 kts | 1° |
| 2026-05-05 19:55 | 51.48057 | -0.78866 | 4072 ft | 220 kts | 22° |
| 2026-05-05 19:56 | 51.49268 | -0.77487 | 3609 ft | 213 kts | 52° |
| 2026-05-05 19:56 | 51.49822 | -0.75349 | 3173 ft | 208 kts | 84° |
| 2026-05-05 19:56 | 51.49551 | -0.73177 | 2992 ft | 196 kts | 115° |
| 2026-05-05 19:56 | 51.48855 | -0.71371 | 3010 ft | 188 kts | 120° |
| 2026-05-05 19:57 | 51.48144 | -0.69625 | 2850 ft | 186 kts | 117° |
| 2026-05-05 19:57 | 51.47656 | -0.67754 | 2696 ft | 173 kts | 101° |
| 2026-05-05 19:57 | 51.47531 | -0.65906 | 2478 ft | 165 kts | 88° |
| 2026-05-05 19:57 | 51.47552 | -0.64067 | 2206 ft | 163 kts | 85° |
| 2026-05-05 19:58 | 51.47625 | -0.62288 | 1962 ft | 152 kts | 83° |
| 2026-05-05 19:58 | 51.47679 | -0.60774 | 1686 ft | 126 kts | 85° |
| 2026-05-05 19:58 | 51.47688 | -0.59308 | 1473 ft | 138 kts | 88° |
| 2026-05-05 19:58 | 51.47671 | -0.57768 | 1375 ft | 140 kts | 88° |
| 2026-05-05 19:59 | 51.47689 | -0.56288 | 1065 ft | 126 kts | 85° |
| 2026-05-05 19:59 | 51.47726 | -0.54895 | 819 ft | 126 kts | 87° |
| 2026-05-05 19:59 | 51.47718 | -0.53493 | 677 ft | 126 kts | 88° |
| 2026-05-05 19:59 | 51.47728 | -0.52086 | 533 ft | 126 kts | 86° |
| 2026-05-05 20:00 | 51.47739 | -0.50679 | 399 ft | 125 kts | 88° |
| 2026-05-05 20:00 | 51.47741 | -0.49277 | 240 ft | 126 kts | 86° |
| 2026-05-05 20:00 | 51.47749 | -0.47893 | 103 ft | 119 kts | 87° |
| 2026-05-05 20:00 | 51.47755 | -0.46806 | 96 ft | 59 kts | 89° |
| 2026-05-05 20:01 | 51.47756 | -0.46473 | 98 ft | 23 kts | 90° |
| 2026-05-05 20:01 | 51.47755 | -0.46285 | 95 ft | 11 kts | 90° |
| 2026-05-05 20:01 | 51.47716 | -0.46164 | 92 ft | 15 kts | 139° |
| 2026-05-05 20:01 | 51.47650 | -0.46088 | 92 ft | 11 kts | 146° |
| 2026-05-05 20:02 | 51.47599 | -0.46126 | 92 ft | 11 kts | 249° |
| 2026-05-05 20:02 | 51.47593 | -0.46264 | 92 ft | 14 kts | 269° |
| 2026-05-05 20:02 | 51.47593 | -0.46414 | 92 ft | 13 kts | 270° |
| 2026-05-05 20:02 | 51.47593 | -0.46574 | 92 ft | 16 kts | 269° |
| 2026-05-05 20:03 | 51.47592 | -0.46761 | 92 ft | 18 kts | 269° |
| 2026-05-05 20:03 | 51.47583 | -0.46941 | 94 ft | 17 kts | 269° |
| 2026-05-05 20:03 | 51.47583 | -0.47131 | 92 ft | 12 kts | 269° |
| 2026-05-05 20:03 | 51.47583 | -0.47278 | 93 ft | 14 kts | 269° |
| 2026-05-05 20:04 | 51.47582 | -0.47453 | 95 ft | 17 kts | 270° |
| 2026-05-05 20:04 | 51.47582 | -0.47656 | 94 ft | 19 kts | 270° |
| 2026-05-05 20:04 | 51.47582 | -0.47817 | 96 ft | 9 kts | 270° |
| 2026-05-05 20:04 | 51.47582 | -0.47933 | 94 ft | 12 kts | 269° |
| 2026-05-05 20:05 | 51.47580 | -0.48081 | 95 ft | 15 kts | 268° |
| 2026-05-05 20:05 | 51.47579 | -0.48234 | 94 ft | 12 kts | 270° |
| 2026-05-05 20:05 | 51.47547 | -0.48355 | 92 ft | 14 kts | 201° |
| 2026-05-05 20:05 | 51.47439 | -0.48364 | 92 ft | 17 kts | 179° |
| 2026-05-05 20:06 | 51.47314 | -0.48363 | 92 ft | 19 kts | 179° |
| 2026-05-05 20:06 | 51.47173 | -0.48361 | 92 ft | 21 kts | 180° |
| 2026-05-05 20:06 | 51.47045 | -0.48360 | 92 ft | 19 kts | 179° |
| 2026-05-05 20:06 | 51.46932 | -0.48358 | 92 ft | 12 kts | 179° |
| 2026-05-05 20:07 | 51.46876 | -0.48428 | 92 ft | 13 kts | 266° |
| 2026-05-05 20:07 | 51.46877 | -0.48516 | 92 ft | 6 kts | 271° |
| 2026-05-05 20:07 | 51.46881 | -0.48561 | 92 ft | 3 kts | 306° |
| 2026-05-05 20:07 | 51.46903 | -0.48574 | 92 ft | 4 kts | 353° |
| 2026-05-05 20:08 | 51.46915 | -0.48574 | 92 ft | 2 kts | 358° |
| 2026-05-05 20:08 | 51.46922 | -0.48574 | 92 ft | 0 kts | 359° |